Time;durP1;ratioP1;P1;durP2;ratioP2;P2;SDS_P1;SDS_P2;PMS_P1;PMS_P2;Temp;Humidity;BMP_temperature;BMP_pressure;BME280_temperature;BME280_humidity;BME280_pressure;Samples;Min_cycle;Max_cycle;Signal;HPM_P1;HPM_P2
2023/11/24 00:02:32;;;;;;;1.00;0.90;;;;;1.60;95984.00;;;;5028918;28;20455;-83
2023/11/24 00:05:22;;;;;;;2.10;1.80;;;;;2.50;95994.00;;;;5030385;28;20420;-84
2023/11/24 00:08:11;;;;;;;2.27;2.07;;;;;2.20;95984.00;;;;5029925;28;20444;-89
2023/11/24 00:11:03;;;;;;;3.33;2.70;;;;;1.60;95986.00;;;;5027862;28;20443;-86
2023/11/24 00:13:53;;;;;;;1.50;1.40;;;;;1.50;95971.00;;;;5026849;28;20456;-86
2023/11/24 00:16:43;;;;;;;1.83;1.70;;;;;1.50;95955.00;;;;5072444;23;20492;-67
2023/11/24 00:19:32;;;;;;;1.60;1.50;;;;;2.00;95975.00;;;;5080165;28;20478;-67
2023/11/24 00:22:21;;;;;;;1.30;1.20;;;;;1.60;95958.00;;;;5073647;28;21068;-68
2023/11/24 00:25:12;;;;;;;2.03;1.87;;;;;1.90;95959.00;;;;5069668;28;20452;-66
2023/11/24 00:28:01;;;;;;;2.33;2.13;;;;;2.20;95964.00;;;;5070427;28;20824;-67
2023/11/24 00:30:54;;;;;;;1.57;1.47;;;;;2.40;95964.00;;;;5073695;28;20466;-66
2023/11/24 00:33:43;;;;;;;1.60;1.50;;;;;2.50;95964.00;;;;5071765;28;20435;-67
2023/11/24 00:36:32;;;;;;;1.70;1.60;;;;;2.70;95956.00;;;;5071552;28;20426;-66
2023/11/24 00:39:21;;;;;;;1.63;1.53;;;;;2.50;95970.00;;;;5092036;28;20443;-67
2023/11/24 00:42:10;;;;;;;2.00;1.90;;;;;2.40;95953.00;;;;5072331;28;20465;-66
2023/11/24 00:45:00;;;;;;;2.60;2.40;;;;;2.30;95947.00;;;;5082468;28;20436;-66
2023/11/24 00:47:50;;;;;;;3.10;2.50;;;;;2.60;95944.00;;;;5086263;28;20416;-67
2023/11/24 00:50:39;;;;;;;1.43;1.33;;;;;2.20;95927.00;;;;5078979;28;20442;-67
2023/11/24 00:53:28;;;;;;;1.67;1.57;;;;;1.80;95922.00;;;;5073063;28;20966;-66
2023/11/24 00:56:17;;;;;;;1.87;1.77;;;;;1.80;95922.00;;;;5071209;28;20452;-67
2023/11/24 00:59:06;;;;;;;1.90;1.80;;;;;2.20;95905.00;;;;5068919;28;20426;-67
2023/11/24 01:01:55;;;;;;;1.30;1.27;;;;;2.30;95909.00;;;;5070521;28;20970;-67
2023/11/24 01:04:47;;;;;;;1.20;1.20;;;;;2.50;95906.00;;;;5072907;28;20950;-67
2023/11/24 01:07:36;;;;;;;1.40;1.30;;;;;2.30;95895.00;;;;5069652;28;20434;-67
2023/11/24 01:10:25;;;;;;;1.37;1.30;;;;;2.60;95904.00;;;;5072251;28;20439;-67
2023/11/24 01:13:15;;;;;;;1.33;1.23;;;;;2.60;95894.00;;;;5073082;28;20808;-67
2023/11/24 01:16:04;;;;;;;2.07;1.97;;;;;2.80;95890.00;;;;5074980;28;20441;-67
2023/11/24 01:18:56;;;;;;;1.63;1.53;;;;;2.00;95887.00;;;;5073763;28;20951;-67
2023/11/24 01:21:47;;;;;;;1.10;1.10;;;;;2.00;95887.00;;;;5069603;28;20844;-67
2023/11/24 01:24:36;;;;;;;1.30;1.20;;;;;2.40;95889.00;;;;5068570;28;20452;-67
2023/11/24 01:27:25;;;;;;;1.53;1.43;;;;;2.50;95878.00;;;;5078168;28;20417;-67
2023/11/24 01:30:15;;;;;;;1.97;1.87;;;;;2.30;95875.00;;;;5072465;28;20464;-67
2023/11/24 01:33:04;;;;;;;1.97;1.87;;;;;1.50;95862.00;;;;5069555;28;20411;-67
2023/11/24 01:35:55;;;;;;;1.40;1.30;;;;;2.20;95862.00;;;;5076627;28;20842;-66
2023/11/24 01:38:46;;;;;;;1.13;1.13;;;;;2.50;95863.00;;;;5072822;28;20427;-67
2023/11/24 01:41:35;;;;;;;1.40;1.30;;;;;1.40;95848.00;;;;5069137;28;20458;-67
2023/11/24 01:44:24;;;;;;;0.80;0.80;;;;;2.10;95858.00;;;;5071681;28;20429;-67
2023/11/24 01:47:13;;;;;;;1.33;1.33;;;;;2.40;95854.00;;;;5076900;28;20961;-67
2023/11/24 01:50:03;;;;;;;2.90;2.70;;;;;2.50;95834.00;;;;5070482;28;20465;-67
2023/11/24 01:52:52;;;;;;;1.47;1.37;;;;;1.50;95831.00;;;;5068644;28;20435;-66
2023/11/24 01:55:43;;;;;;;1.27;1.17;;;;;0.70;95820.00;;;;5074115;28;20429;-68
2023/11/24 01:58:32;;;;;;;1.10;1.10;;;;;0.80;95825.00;;;;5068682;28;20418;-67
2023/11/24 02:01:24;;;;;;;2.10;2.00;;;;;1.20;95805.00;;;;5072736;28;20457;-67
2023/11/24 02:04:15;;;;;;;1.60;1.50;;;;;1.00;95808.00;;;;5055745;23;21018;-81
2023/11/24 02:07:04;;;;;;;1.80;1.70;;;;;1.80;95799.00;;;;5046959;28;20565;-81
2023/11/24 02:09:53;;;;;;;2.53;1.80;;;;;1.00;95787.00;;;;5048419;28;20440;-82
2023/11/24 02:12:43;;;;;;;1.40;1.30;;;;;1.20;95779.00;;;;5047694;28;20463;-80
2023/11/24 02:15:32;;;;;;;1.50;1.40;;;;;1.40;95783.00;;;;5052272;28;20427;-81
2023/11/24 02:18:21;;;;;;;1.60;1.50;;;;;2.10;95776.00;;;;5042449;28;20416;-82
2023/11/24 02:21:11;;;;;;;1.93;1.83;;;;;1.20;95762.00;;;;5041762;28;20434;-81
2023/11/24 02:24:01;;;;;;;2.07;1.97;;;;;1.50;95767.00;;;;5059585;28;20426;-82
2023/11/24 02:26:50;;;;;;;0.90;0.90;;;;;1.90;95763.00;;;;5051077;28;20848;-81
2023/11/24 02:29:39;;;;;;;1.33;1.23;;;;;1.80;95766.00;;;;5045937;28;20948;-81
2023/11/24 02:32:28;;;;;;;1.17;1.17;;;;;2.10;95755.00;;;;5059183;28;20476;-81
2023/11/24 02:35:17;;;;;;;1.37;1.27;;;;;2.50;95768.00;;;;5053642;28;20416;-82
2023/11/24 02:38:07;;;;;;;1.60;1.50;;;;;2.30;95782.00;;;;5051587;28;20442;-81
2023/11/24 02:40:57;;;;;;;1.53;1.43;;;;;1.50;95764.00;;;;5048046;28;20423;-81
2023/11/24 02:43:46;;;;;;;1.33;1.27;;;;;1.00;95752.00;;;;5051372;28;20443;-83
2023/11/24 02:46:35;;;;;;;1.50;1.40;;;;;1.70;95757.00;;;;5046178;28;20446;-82
2023/11/24 02:49:24;;;;;;;1.30;1.20;;;;;1.80;95750.00;;;;5044634;28;20423;-81
2023/11/24 02:52:14;;;;;;;1.80;1.70;;;;;1.10;95743.00;;;;5051551;28;20844;-82
2023/11/24 02:55:03;;;;;;;2.17;2.07;;;;;1.10;95735.00;;;;5051900;28;20438;-81
2023/11/24 02:57:53;;;;;;;1.30;1.20;;;;;1.20;95727.00;;;;5050857;28;20419;-81
2023/11/24 03:00:42;;;;;;;1.00;1.00;;;;;1.40;95731.00;;;;5039448;28;20963;-81
2023/11/24 03:03:31;;;;;;;0.90;0.90;;;;;2.00;95727.00;;;;5039016;28;20440;-80
2023/11/24 03:06:20;;;;;;;1.73;1.63;;;;;2.00;95742.00;;;;5046672;28;20952;-80
2023/11/24 03:09:10;;;;;;;1.77;1.67;;;;;2.10;95721.00;;;;5049255;28;20948;-82
2023/11/24 03:11:59;;;;;;;1.33;1.27;;;;;1.80;95714.00;;;;5050507;28;20487;-82
2023/11/24 03:14:51;;;;;;;0.90;0.90;;;;;2.50;95717.00;;;;5048258;28;20428;-81
2023/11/24 03:17:41;;;;;;;1.70;1.60;;;;;2.30;95703.00;;;;5047320;28;20982;-81
2023/11/24 03:20:30;;;;;;;1.17;1.17;;;;;1.90;95677.00;;;;5047868;28;20423;-82
2023/11/24 03:23:19;;;;;;;0.90;0.90;;;;;1.90;95659.00;;;;5049846;28;20424;-81
2023/11/24 03:26:10;;;;;;;1.80;1.70;;;;;2.00;95668.00;;;;5052707;28;20443;-81
2023/11/24 03:29:00;;;;;;;1.80;1.70;;;;;2.20;95672.00;;;;5049652;28;20832;-81
2023/11/24 03:31:51;;;;;;;1.30;1.20;;;;;2.20;95660.00;;;;5049425;28;20841;-80
2023/11/24 03:34:40;;;;;;;1.17;1.17;;;;;2.50;95654.00;;;;5041124;28;20450;-81
2023/11/24 03:37:29;;;;;;;1.20;1.20;;;;;2.10;95645.00;;;;5043824;28;20447;-81
2023/11/24 03:40:18;;;;;;;1.20;1.20;;;;;1.40;95646.00;;;;5046777;28;20438;-82
2023/11/24 03:43:07;;;;;;;1.73;1.63;;;;;2.20;95641.00;;;;5049749;28;20815;-81
2023/11/24 03:45:56;;;;;;;1.23;1.23;;;;;2.50;95649.00;;;;5046485;28;20451;-81
2023/11/24 03:48:47;;;;;;;1.33;1.27;;;;;2.10;95644.00;;;;5052651;28;20466;-81
2023/11/24 03:51:36;;;;;;;0.93;0.93;;;;;2.70;95649.00;;;;5051389;28;20427;-81
2023/11/24 03:54:25;;;;;;;1.00;1.00;;;;;2.70;95626.00;;;;5043473;28;20416;-81
2023/11/24 03:57:14;;;;;;;1.47;1.40;;;;;2.20;95646.00;;;;5048563;28;20481;-81
2023/11/24 04:00:03;;;;;;;2.40;2.30;;;;;2.90;95639.00;;;;5049057;28;20498;-81
2023/11/24 04:02:52;;;;;;;1.10;1.10;;;;;3.00;95629.00;;;;5046240;28;20438;-81
2023/11/24 04:05:43;;;;;;;1.20;1.20;;;;;2.60;95611.00;;;;5046051;28;20423;-81
2023/11/24 04:08:32;;;;;;;1.00;1.00;;;;;2.70;95620.00;;;;5044645;28;20955;-81
2023/11/24 04:11:21;;;;;;;1.07;1.07;;;;;2.30;95604.00;;;;5046294;28;20442;-81
2023/11/24 04:14:10;;;;;;;1.50;1.40;;;;;2.70;95603.00;;;;5049367;28;20432;-80
2023/11/24 04:16:59;;;;;;;1.07;1.07;;;;;3.10;95600.00;;;;5046999;28;20956;-81
2023/11/24 04:19:49;;;;;;;1.23;1.23;;;;;2.00;95612.00;;;;5047864;28;20914;-81
2023/11/24 04:22:39;;;;;;;1.07;1.07;;;;;3.00;95602.00;;;;5045517;28;20502;-81
2023/11/24 04:25:29;;;;;;;0.77;0.77;;;;;3.30;95613.00;;;;5048630;28;20439;-80
2023/11/24 04:28:18;;;;;;;1.50;1.40;;;;;3.00;95610.00;;;;5048220;28;20416;-81
2023/11/24 04:31:07;;;;;;;1.80;1.70;;;;;2.30;95600.00;;;;5040437;28;20441;-81
2023/11/24 04:33:56;;;;;;;1.27;1.20;;;;;3.30;95621.00;;;;5054869;28;20478;-81
2023/11/24 04:36:45;;;;;;;1.47;1.37;;;;;2.80;95610.00;;;;5049067;28;20831;-81
2023/11/24 04:39:35;;;;;;;1.20;1.20;;;;;2.40;95619.00;;;;5044333;28;20449;-80
2023/11/24 04:42:26;;;;;;;1.20;1.20;;;;;3.00;95602.00;;;;5042195;28;20431;-81
2023/11/24 04:45:15;;;;;;;1.60;1.50;;;;;2.60;95596.00;;;;5050295;28;20426;-81
2023/11/24 04:48:05;;;;;;;1.83;1.73;;;;;3.10;95582.00;;;;5048987;28;20443;-81
2023/11/24 04:50:55;;;;;;;1.40;1.30;;;;;3.60;95580.00;;;;5049144;28;20427;-81
2023/11/24 04:53:44;;;;;;;1.00;1.00;;;;;1.80;95594.00;;;;5050784;28;20489;-84
2023/11/24 04:56:34;;;;;;;1.10;1.10;;;;;3.00;95582.00;;;;5051055;28;20446;-81
2023/11/24 04:59:26;;;;;;;1.13;1.13;;;;;3.50;95584.00;;;;5050428;28;20416;-82
2023/11/24 05:02:15;;;;;;;1.70;1.60;;;;;3.20;95578.00;;;;5041574;28;20956;-82
2023/11/24 05:05:06;;;;;;;2.07;1.97;;;;;3.80;95574.00;;;;5047657;28;20427;-81
2023/11/24 05:07:55;;;;;;;1.40;1.30;;;;;3.20;95570.00;;;;5048174;28;20427;-80
2023/11/24 05:10:44;;;;;;;1.00;1.00;;;;;3.40;95573.00;;;;5045479;28;20436;-81
2023/11/24 05:13:34;;;;;;;1.27;1.23;;;;;3.60;95574.00;;;;5042728;28;20455;-81
2023/11/24 05:16:23;;;;;;;1.50;1.40;;;;;4.10;95569.00;;;;5040683;28;20447;-81
2023/11/24 05:19:12;;;;;;;1.50;1.40;;;;;4.20;95572.00;;;;5048858;28;20427;-81
2023/11/24 05:22:01;;;;;;;1.80;1.70;;;;;4.10;95560.00;;;;5047341;28;20439;-80
2023/11/24 05:24:50;;;;;;;1.17;1.17;;;;;4.50;95573.00;;;;5047118;28;20525;-80
2023/11/24 05:27:39;;;;;;;1.17;1.17;;;;;4.20;95564.00;;;;5042319;28;20459;-80
2023/11/24 05:30:29;;;;;;;1.40;1.30;;;;;4.00;95573.00;;;;5049074;28;20423;-81
2023/11/24 05:33:19;;;;;;;1.03;1.03;;;;;4.20;95558.00;;;;5040429;28;20490;-81
2023/11/24 05:36:09;;;;;;;1.90;1.80;;;;;4.40;95569.00;;;;5046994;28;20447;-82
2023/11/24 05:38:59;;;;;;;1.43;1.33;;;;;4.20;95558.00;;;;5049047;28;20442;-79
2023/11/24 05:41:48;;;;;;;1.10;1.10;;;;;4.20;95564.00;;;;5050165;28;20431;-80
2023/11/24 05:44:38;;;;;;;1.07;1.07;;;;;4.10;95557.00;;;;5046715;28;20808;-81
2023/11/24 05:47:29;;;;;;;1.40;1.30;;;;;4.00;95548.00;;;;5049957;28;20480;-81
2023/11/24 05:50:22;;;;;;;1.10;1.10;;;;;4.40;95551.00;;;;5051509;28;20456;-80
2023/11/24 05:53:11;;;;;;;1.17;1.17;;;;;4.00;95548.00;;;;5053120;28;20494;-81
2023/11/24 05:56:00;;;;;;;1.03;1.00;;;;;3.60;95546.00;;;;5052783;28;20471;-80
2023/11/24 05:58:51;;;;;;;0.90;0.90;;;;;3.80;95539.00;;;;5054083;28;20423;-80
2023/11/24 06:01:42;;;;;;;0.73;0.73;;;;;4.50;95526.00;;;;5053264;28;20427;-80
2023/11/24 06:04:32;;;;;;;1.20;1.20;;;;;4.20;95551.00;;;;5048167;28;20434;-80
2023/11/24 06:07:22;;;;;;;1.37;1.27;;;;;4.50;95549.00;;;;5049460;28;20988;-80
2023/11/24 06:10:12;;;;;;;2.63;2.43;;;;;5.00;95548.00;;;;5052593;28;20453;-80
2023/11/24 06:13:01;;;;;;;1.43;1.33;;;;;5.10;95550.00;;;;5047304;28;20435;-80
2023/11/24 06:15:50;;;;;;;1.43;1.33;;;;;4.50;95547.00;;;;5053969;28;20612;-81
2023/11/24 06:18:40;;;;;;;1.40;1.30;;;;;5.30;95533.00;;;;5049828;28;20435;-81
2023/11/24 06:21:30;;;;;;;1.50;1.40;;;;;4.70;95545.00;;;;5053818;28;20416;-81
2023/11/24 06:24:19;;;;;;;0.93;0.93;;;;;5.20;95536.00;;;;5054856;28;20200;-80
2023/11/24 06:27:09;;;;;;;1.93;1.83;;;;;5.80;95547.00;;;;5051484;28;20220;-79
2023/11/24 06:29:58;;;;;;;1.43;1.33;;;;;5.70;95537.00;;;;5047521;28;20586;-81
2023/11/24 06:32:47;;;;;;;1.13;1.13;;;;;5.70;95549.00;;;;5048133;28;20196;-81
2023/11/24 06:35:36;;;;;;;1.30;1.20;;;;;6.10;95556.00;;;;5048566;28;20587;-80
2023/11/24 06:38:26;;;;;;;2.00;1.90;;;;;6.30;95538.00;;;;5049580;28;20208;-81
2023/11/24 06:41:15;;;;;;;1.97;1.87;;;;;5.20;95545.00;;;;5052449;28;20209;-80
2023/11/24 06:44:06;;;;;;;1.60;1.50;;;;;5.80;95545.00;;;;5048644;28;20208;-80
2023/11/24 06:46:55;;;;;;;0.90;0.90;;;;;6.30;95546.00;;;;5042785;28;20231;-81
2023/11/24 06:49:44;;;;;;;0.97;0.97;;;;;6.20;95558.00;;;;5049246;28;20668;-80
2023/11/24 06:52:33;;;;;;;0.93;0.93;;;;;6.50;95550.00;;;;5044134;28;20204;-81
2023/11/24 06:55:23;;;;;;;1.30;1.20;;;;;5.60;95557.00;;;;5053130;28;20697;-80
2023/11/24 06:58:12;;;;;;;1.50;1.40;;;;;5.70;95554.00;;;;5048958;28;20212;-80
2023/11/24 07:01:01;;;;;;;1.87;1.73;;;;;6.50;95539.00;;;;5048848;28;20612;-81
2023/11/24 07:03:50;;;;;;;1.53;1.43;;;;;6.40;95560.00;;;;5055682;28;20211;-81
2023/11/24 07:06:39;;;;;;;1.30;1.20;;;;;5.80;95545.00;;;;5046258;28;20231;-81
2023/11/24 07:09:28;;;;;;;1.40;1.30;;;;;6.10;95556.00;;;;5052533;28;20200;-81
2023/11/24 07:12:19;;;;;;;1.57;1.47;;;;;5.20;95553.00;;;;5044585;28;20204;-82
2023/11/24 07:15:10;;;;;;;1.90;1.80;;;;;5.80;95558.00;;;;5051510;28;20224;-81
2023/11/24 07:17:59;;;;;;;1.17;1.10;;;;;6.50;95580.00;;;;5052053;28;20208;-79
2023/11/24 07:20:48;;;;;;;1.17;1.10;;;;;6.60;95566.00;;;;5050525;28;20208;-80
2023/11/24 07:23:38;;;;;;;1.63;1.53;;;;;6.70;95580.00;;;;5050598;28;20208;-80
2023/11/24 07:26:28;;;;;;;1.27;1.27;;;;;6.00;95571.00;;;;5050908;28;20224;-80
2023/11/24 07:29:21;;;;;;;1.80;1.70;;;;;6.40;95581.00;;;;5050361;28;20206;-80
2023/11/24 07:32:11;;;;;;;1.77;1.67;;;;;6.90;95577.00;;;;5045627;28;20211;-80
2023/11/24 07:35:00;;;;;;;1.17;1.10;;;;;6.80;95572.00;;;;5048631;28;20690;-80
2023/11/24 07:37:49;;;;;;;0.70;0.70;;;;;7.20;95567.00;;;;5048481;28;20208;-80
2023/11/24 07:40:39;;;;;;;0.73;0.73;;;;;7.70;95542.00;;;;5045681;28;20200;-81
2023/11/24 07:43:28;;;;;;;1.00;1.00;;;;;6.90;95533.00;;;;5039007;28;20205;-80
2023/11/24 07:46:18;;;;;;;2.00;1.90;;;;;6.90;95530.00;;;;5049333;28;20736;-81
2023/11/24 07:49:07;;;;;;;1.63;1.53;;;;;6.00;95517.00;;;;5048538;28;20471;-81
2023/11/24 07:51:56;;;;;;;1.00;1.00;;;;;6.80;95505.00;;;;5050474;28;20197;-81
2023/11/24 07:54:45;;;;;;;1.50;1.40;;;;;8.10;95520.00;;;;5046277;28;20759;-80
2023/11/24 07:57:35;;;;;;;1.30;1.20;;;;;8.70;95514.00;;;;5049948;28;20243;-81
2023/11/24 08:00:24;;;;;;;1.63;1.43;;;;;8.40;95508.00;;;;5048002;28;20669;-81
2023/11/24 08:03:16;;;;;;;2.20;2.00;;;;;8.40;95503.00;;;;5049575;28;20553;-81
2023/11/24 08:06:07;;;;;;;2.47;2.17;;;;;8.60;95498.00;;;;5049172;28;20682;-80
2023/11/24 08:08:59;;;;;;;1.63;1.53;;;;;9.10;95491.00;;;;5049639;28;20286;-80
2023/11/24 08:11:48;;;;;;;1.00;0.90;;;;;9.40;95489.00;;;;5044140;28;20209;-81
2023/11/24 08:14:37;;;;;;;1.00;0.90;;;;;9.00;95472.00;;;;5038350;28;20220;-81
2023/11/24 08:17:26;;;;;;;1.33;1.20;;;;;9.10;95459.00;;;;5049922;28;20224;-81
2023/11/24 08:20:18;;;;;;;3.37;2.87;;;;;8.80;95440.00;;;;5044401;28;20712;-80
2023/11/24 08:23:10;;;;;;;1.40;1.30;;;;;8.60;95443.00;;;;5051099;28;20566;-81
2023/11/24 08:25:59;;;;;;;1.57;1.47;;;;;9.50;95429.00;;;;5048251;28;20690;-81
2023/11/24 08:28:49;;;;;;;1.53;1.30;;;;;9.90;95428.00;;;;5051123;28;20203;-81
2023/11/24 08:31:40;;;;;;;1.40;1.30;;;;;9.80;95410.00;;;;5055173;28;20200;-81
2023/11/24 08:34:29;;;;;;;2.13;1.87;;;;;10.10;95413.00;;;;5047639;28;20227;-81
2023/11/24 08:37:20;;;;;;;2.40;2.20;;;;;9.90;95410.00;;;;5047365;28;20220;-81
2023/11/24 08:40:14;;;;;;;2.77;2.43;;;;;9.40;95406.00;;;;5048435;28;20230;-81
2023/11/24 08:43:04;;;;;;;1.90;1.60;;;;;10.00;95409.00;;;;5050631;28;20200;-81
2023/11/24 08:45:53;;;;;;;1.53;1.27;;;;;11.10;95413.00;;;;5050871;28;20223;-81
2023/11/24 08:48:42;;;;;;;1.60;1.33;;;;;11.40;95421.00;;;;5047035;28;20673;-81
2023/11/24 08:51:31;;;;;;;1.37;1.23;;;;;9.80;95417.00;;;;5044969;28;20204;-81
2023/11/24 08:54:22;;;;;;;1.50;1.30;;;;;10.40;95420.00;;;;5050654;28;20209;-80
2023/11/24 08:57:11;;;;;;;2.33;1.90;;;;;10.90;95427.00;;;;5042483;28;20239;-81
2023/11/24 09:00:00;;;;;;;2.60;1.87;;;;;11.20;95434.00;;;;5050414;28;20208;-80
2023/11/24 09:02:50;;;;;;;1.67;1.30;;;;;11.50;95432.00;;;;5048701;28;20215;-80
2023/11/24 09:05:39;;;;;;;1.60;1.43;;;;;11.50;95439.00;;;;5051334;28;20189;-81
2023/11/24 09:08:28;;;;;;;2.30;1.93;;;;;11.50;95460.00;;;;5046891;28;20203;-81
2023/11/24 09:11:18;;;;;;;2.93;2.50;;;;;11.30;95452.00;;;;5048984;28;20573;-80
2023/11/24 09:14:08;;;;;;;2.60;2.23;;;;;11.40;95444.00;;;;5051992;28;20578;-80
2023/11/24 09:16:57;;;;;;;1.50;1.30;;;;;11.50;95436.00;;;;5057736;28;20701;-81
2023/11/24 09:19:46;;;;;;;1.10;0.90;;;;;11.80;95439.00;;;;5051592;28;20231;-81
2023/11/24 09:22:35;;;;;;;1.30;1.20;;;;;11.60;95438.00;;;;5064668;23;20234;-85
2023/11/24 09:25:24;;;;;;;1.37;1.27;;;;;11.80;95437.00;;;;5066323;28;20230;-85
2023/11/24 09:28:16;;;;;;;2.17;1.90;;;;;11.80;95442.00;;;;5050132;28;20200;-85
2023/11/24 09:31:08;;;;;;;2.13;1.90;;;;;12.20;95428.00;;;;5050599;28;20238;-85
2023/11/24 09:33:57;;;;;;;1.40;1.30;;;;;12.30;95420.00;;;;5049927;28;20572;-86
2023/11/24 09:36:46;;;;;;;1.33;1.23;;;;;12.40;95424.00;;;;5048406;28;20645;-85
2023/11/24 09:39:35;;;;;;;1.83;1.33;;;;;12.40;95416.00;;;;5045836;28;20204;-85
2023/11/24 09:42:25;;;;;;;1.67;1.47;;;;;12.50;95410.00;;;;5049329;28;20204;-85
2023/11/24 09:45:17;;;;;;;2.00;1.80;;;;;12.60;95397.00;;;;5050564;28;20209;-85
2023/11/24 09:48:08;;;;;;;2.37;1.90;;;;;12.50;95405.00;;;;5048659;28;20690;-86
2023/11/24 09:50:58;;;;;;;1.53;1.43;;;;;12.90;95388.00;;;;5049113;28;20212;-86
2023/11/24 09:53:47;;;;;;;1.63;1.50;;;;;13.20;95396.00;;;;5049442;28;20208;-86
2023/11/24 09:56:36;;;;;;;1.50;1.27;;;;;13.50;95384.00;;;;5049324;28;20250;-86
2023/11/24 09:59:26;;;;;;;1.00;0.90;;;;;13.50;95386.00;;;;5048503;28;20204;-86
2023/11/24 10:02:19;;;;;;;2.77;2.17;;;;;13.70;95388.00;;;;5050380;28;20204;-85
2023/11/24 10:05:17;;;;;;;2.03;1.53;;;;;13.60;95383.00;;;;5049766;28;20204;-86
2023/11/24 10:08:06;;;;;;;1.97;1.60;;;;;13.50;95372.00;;;;5048441;28;20250;-85
2023/11/24 10:11:13;;;;;;;2.00;1.50;;;;;13.20;95363.00;;;;5049557;28;20657;-85
2023/11/24 10:14:04;;;;;;;1.80;1.40;;;;;13.10;95349.00;;;;5037391;28;20194;-85
2023/11/24 10:16:53;;;;;;;2.27;1.57;;;;;14.00;95347.00;;;;5046169;28;20739;-85
2023/11/24 10:19:43;;;;;;;1.60;1.40;;;;;14.00;95347.00;;;;5048726;28;20204;-85
2023/11/24 10:22:32;;;;;;;1.63;1.33;;;;;13.80;95331.00;;;;5048080;28;20212;-85
2023/11/24 10:25:22;;;;;;;1.53;1.23;;;;;13.50;95336.00;;;;5049235;28;22189;-86
2023/11/24 10:28:11;;;;;;;3.00;2.33;;;;;13.50;95317.00;;;;5048143;28;20227;-85
2023/11/24 10:31:00;;;;;;;2.50;1.73;;;;;13.80;95314.00;;;;5048300;28;20200;-86
2023/11/24 10:33:49;;;;;;;1.63;1.30;;;;;13.50;95315.00;;;;5049186;28;20208;-86
2023/11/24 10:36:40;;;;;;;1.83;1.43;;;;;13.40;95323.00;;;;5049058;28;20705;-86
2023/11/24 10:39:30;;;;;;;3.87;3.07;;;;;13.10;95313.00;;;;5044982;28;20662;-86
2023/11/24 10:42:21;;;;;;;2.33;1.90;;;;;12.80;95331.00;;;;5045784;28;20208;-85
2023/11/24 10:45:11;;;;;;;1.67;1.40;;;;;12.90;95315.00;;;;5047529;28;20205;-85
2023/11/24 10:48:09;;;;;;;1.70;1.53;;;;;12.70;95311.00;;;;5047993;28;20216;-85
2023/11/24 10:51:04;;;;;;;1.40;1.30;;;;;12.90;95310.00;;;;5050018;28;20682;-86
2023/11/24 10:53:57;;;;;;;1.67;1.53;;;;;13.10;95300.00;;;;5049402;28;20208;-86
2023/11/24 10:56:47;;;;;;;1.13;1.03;;;;;13.10;95300.00;;;;5050339;28;20240;-85
2023/11/24 10:59:39;;;;;;;0.97;0.83;;;;;12.90;95293.00;;;;5049956;28;20208;-86
2023/11/24 11:02:28;;;;;;;1.00;0.90;;;;;12.90;95270.00;;;;5049951;28;20200;-86
2023/11/24 11:05:24;;;;;;;1.63;1.53;;;;;14.10;95254.00;;;;5046676;28;20200;-86
2023/11/24 11:08:19;;;;;;;2.30;1.97;;;;;14.60;95250.00;;;;5049252;28;20212;-86
2023/11/24 11:11:25;;;;;;;3.53;2.70;;;;;14.60;95261.00;;;;5040224;28;20201;-87
2023/11/24 11:14:16;;;;;;;2.70;2.27;;;;;14.30;95273.00;;;;5046850;28;20204;-87
2023/11/24 11:17:15;;;;;;;2.00;1.53;;;;;14.50;95253.00;;;;5046602;28;20240;-86
2023/11/24 11:20:12;;;;;;;3.07;2.40;;;;;14.30;95278.00;;;;5047583;28;20204;-86
2023/11/24 11:23:04;;;;;;;0.83;0.80;;;;;13.90;95271.00;;;;5044542;28;20217;-86
2023/11/24 11:25:54;;;;;;;1.20;1.10;;;;;13.80;95257.00;;;;5046838;28;20197;-87
2023/11/24 11:28:46;;;;;;;1.20;1.00;;;;;13.80;95261.00;;;;5045650;28;20197;-86
2023/11/24 11:31:37;;;;;;;2.93;2.50;;;;;13.90;95254.00;;;;5046013;28;20742;-86
2023/11/24 11:34:30;;;;;;;1.63;1.47;;;;;13.50;95223.00;;;;5045819;28;20273;-86
2023/11/24 11:37:22;;;;;;;3.37;2.90;;;;;15.40;95185.00;;;;5046024;28;20225;-85
2023/11/24 11:40:15;;;;;;;1.93;1.70;;;;;14.80;95246.00;;;;5041502;28;20209;-85
2023/11/24 11:43:10;;;;;;;2.83;2.30;;;;;14.50;95246.00;;;;5046910;28;20196;-87
2023/11/24 11:46:00;;;;;;;2.63;1.97;;;;;13.70;95245.00;;;;5044257;28;20191;-87
2023/11/24 11:48:51;;;;;;;1.00;0.90;;;;;12.40;95227.00;;;;5046911;28;20587;-87
2023/11/24 11:51:40;;;;;;;1.20;1.10;;;;;13.20;95242.00;;;;5047781;28;20250;-86
2023/11/24 11:54:29;;;;;;;1.77;1.57;;;;;13.10;95231.00;;;;5049274;28;20658;-88
2023/11/24 11:57:20;;;;;;;2.30;2.10;;;;;13.20;95230.00;;;;5047002;28;20607;-87
2023/11/24 12:00:13;;;;;;;3.73;3.13;;;;;13.50;95216.00;;;;5047405;28;20213;-85
2023/11/24 12:03:04;;;;;;;1.10;0.90;;;;;13.30;95204.00;;;;5047596;28;20230;-86
2023/11/24 12:05:55;;;;;;;2.20;1.67;;;;;13.20;95216.00;;;;5047143;28;20231;-86
2023/11/24 12:08:45;;;;;;;1.10;1.00;;;;;13.20;95213.00;;;;5035631;28;20212;-85
2023/11/24 12:11:34;;;;;;;1.67;1.57;;;;;13.50;95184.00;;;;5038017;28;20200;-86
2023/11/24 12:14:23;;;;;;;1.87;1.67;;;;;13.10;95170.00;;;;5044843;28;20201;-86
2023/11/24 12:17:13;;;;;;;2.53;2.20;;;;;13.10;95184.00;;;;5045818;28;20511;-85
2023/11/24 12:20:09;;;;;;;3.03;2.37;;;;;13.20;95170.00;;;;5045422;28;20670;-86
2023/11/24 12:22:59;;;;;;;1.50;1.30;;;;;13.10;95187.00;;;;5046724;28;20208;-86
2023/11/24 12:25:49;;;;;;;1.77;1.43;;;;;12.60;95175.00;;;;5047200;28;20707;-85
2023/11/24 12:28:40;;;;;;;1.60;1.40;;;;;12.60;95181.00;;;;5045869;28;20208;-85
2023/11/24 12:31:29;;;;;;;2.40;2.07;;;;;12.30;95162.00;;;;5046506;28;20670;-86
2023/11/24 12:34:22;;;;;;;2.60;2.40;;;;;12.50;95157.00;;;;5043879;28;20204;-86
2023/11/24 12:37:13;;;;;;;2.10;1.90;;;;;12.30;95162.00;;;;5045493;28;20262;-86
2023/11/24 12:40:03;;;;;;;2.43;2.23;;;;;11.90;95166.00;;;;5045165;28;20205;-87
2023/11/24 12:42:53;;;;;;;1.30;1.03;;;;;12.00;95151.00;;;;5046224;28;20204;-87
2023/11/24 12:45:43;;;;;;;1.33;1.23;;;;;11.30;95160.00;;;;5042585;28;20211;-85
2023/11/24 12:48:34;;;;;;;2.03;1.73;;;;;11.30;95165.00;;;;5044983;28;20421;-85
2023/11/24 12:51:23;;;;;;;2.10;1.70;;;;;11.60;95163.00;;;;5045603;28;20215;-86
2023/11/24 12:54:14;;;;;;;1.97;1.73;;;;;10.70;95155.00;;;;5046793;28;20675;-85
2023/11/24 12:57:03;;;;;;;1.83;1.63;;;;;11.10;95164.00;;;;5045032;28;20228;-85
2023/11/24 12:59:52;;;;;;;1.53;1.23;;;;;10.00;95169.00;;;;5044291;28;20219;-85
2023/11/24 13:02:42;;;;;;;1.67;1.40;;;;;11.10;95178.00;;;;5047527;28;20211;-85
2023/11/24 13:05:31;;;;;;;1.27;1.10;;;;;11.20;95182.00;;;;5042246;28;20797;-85
2023/11/24 13:08:21;;;;;;;2.57;1.90;;;;;10.80;95191.00;;;;5046844;28;20585;-85
2023/11/24 13:11:12;;;;;;;2.50;2.07;;;;;11.00;95191.00;;;;5042529;28;20281;-85
2023/11/24 13:14:01;;;;;;;1.20;1.10;;;;;10.80;95185.00;;;;5046422;28;20197;-85
2023/11/24 13:16:51;;;;;;;1.20;1.10;;;;;11.10;95194.00;;;;5044082;28;20224;-86
2023/11/24 13:19:42;;;;;;;1.67;1.40;;;;;10.70;95192.00;;;;5049068;28;20209;-84
2023/11/24 13:22:33;;;;;;;1.23;1.13;;;;;10.80;95194.00;;;;5043169;28;20213;-85
2023/11/24 13:25:26;;;;;;;1.83;1.67;;;;;10.80;95198.00;;;;5044311;28;20190;-85
2023/11/24 13:28:17;;;;;;;2.70;2.40;;;;;10.80;95212.00;;;;5045415;28;20537;-85
2023/11/24 13:31:06;;;;;;;3.47;2.00;;;;;10.50;95212.00;;;;5045861;28;20394;-85
2023/11/24 13:33:55;;;;;;;1.70;1.20;;;;;10.90;95198.00;;;;5044688;28;20670;-86
2023/11/24 13:36:45;;;;;;;1.83;1.50;;;;;11.00;95209.00;;;;5046367;28;20229;-86
2023/11/24 13:39:35;;;;;;;1.53;1.40;;;;;10.90;95201.00;;;;5046000;28;20193;-85
2023/11/24 13:42:25;;;;;;;1.60;1.50;;;;;10.90;95214.00;;;;5046594;28;20212;-86
2023/11/24 13:45:16;;;;;;;2.57;2.37;;;;;10.30;95204.00;;;;5046365;28;20196;-85
2023/11/24 13:48:07;;;;;;;1.57;1.37;;;;;10.20;95202.00;;;;5047408;28;20448;-85
2023/11/24 13:50:57;;;;;;;1.40;1.30;;;;;10.60;95202.00;;;;5046119;28;20200;-85
2023/11/24 13:53:50;;;;;;;1.13;1.00;;;;;10.20;95208.00;;;;5045282;28;20208;-85
2023/11/24 13:56:40;;;;;;;1.40;1.30;;;;;10.60;95218.00;;;;5045398;28;20227;-85
2023/11/24 13:59:30;;;;;;;1.87;1.67;;;;;10.90;95217.00;;;;5046403;28;20212;-85
2023/11/24 14:02:21;;;;;;;2.03;1.83;;;;;11.00;95208.00;;;;5043468;28;20201;-85
2023/11/24 14:05:12;;;;;;;2.53;2.27;;;;;10.80;95225.00;;;;5043117;28;20207;-85
2023/11/24 14:08:03;;;;;;;0.90;0.90;;;;;10.80;95212.00;;;;5049300;28;20220;-85
2023/11/24 14:10:52;;;;;;;1.43;1.33;;;;;10.90;95212.00;;;;5048894;28;20209;-85
2023/11/24 14:13:41;;;;;;;2.07;1.70;;;;;11.00;95211.00;;;;5050522;28;20197;-85
2023/11/24 14:16:30;;;;;;;1.97;1.73;;;;;10.90;95221.00;;;;5049057;28;20232;-84
2023/11/24 14:19:21;;;;;;;2.03;1.60;;;;;11.00;95218.00;;;;5046650;28;20212;-86